<?xml version="1.0" encoding="UTF-8" standalone="no" ?>
<gpx xmlns="http://www.topografix.com/GPX/1/1" xmlns:xsi="http://www.w3.org/2001/XMLSchema-instance" xsi:schemaLocation="http://www.topografix.com/GPX/1/1 http://www.topografix.com/GPX/1/1/gpx.xsd" version="1.1" creator="VisuGPX - https://www.visugpx.com">
  <metadata>
    <name>Torfou est</name>
  </metadata>
  <trk>
    <name><![CDATA[Torfou est]]></name>
    <trkseg>
      <trkpt lat="47.03203" lon="-1.09205">
        <ele>115</ele>
        <time>2023-03-21T10:49:19Z</time>
      </trkpt>
      <trkpt lat="47.0325" lon="-1.09096">
        <ele>114</ele>
        <time>2023-03-21T10:51:16Z</time>
      </trkpt>
      <trkpt lat="47.03309" lon="-1.09298">
        <ele>114</ele>
        <time>2023-03-21T10:54:36Z</time>
      </trkpt>
      <trkpt lat="47.03533" lon="-1.08982">
        <ele>116</ele>
        <time>2023-03-21T11:01:31Z</time>
        <extensions>
          <visugpx:TrkExtension xmlns:visugpx="https://www.visugpx.com/editgpx/">
            <visugpx:node>1</visugpx:node>
            </visugpx:TrkExtension>
        </extensions>
      </trkpt>
      <trkpt lat="47.03533" lon="-1.08982">
        <ele>116</ele>
        <time>2023-03-21T07:44:25Z</time>
      </trkpt>
      <trkpt lat="47.0388" lon="-1.09117">
        <ele>113</ele>
        <time>2023-03-21T07:52:24Z</time>
      </trkpt>
      <trkpt lat="47.03883" lon="-1.09294">
        <ele>115</ele>
        <time>2023-03-21T07:55:05Z</time>
      </trkpt>
      <trkpt lat="47.03517" lon="-1.09928">
        <ele>113</ele>
        <time>2023-03-21T08:07:41Z</time>
      </trkpt>
      <trkpt lat="47.03472" lon="-1.10255">
        <ele>109</ele>
        <time>2023-03-21T08:12:44Z</time>
      </trkpt>
      <trkpt lat="47.03412" lon="-1.10329">
        <ele>109</ele>
        <time>2023-03-21T08:14:29Z</time>
      </trkpt>
      <trkpt lat="47.0346" lon="-1.10507">
        <ele>110</ele>
        <time>2023-03-21T08:17:23Z</time>
      </trkpt>
      <trkpt lat="47.03724" lon="-1.10371">
        <ele>110</ele>
        <time>2023-03-21T08:23:36Z</time>
      </trkpt>
      <trkpt lat="47.03927" lon="-1.10721">
        <ele>108</ele>
        <time>2023-03-21T08:30:34Z</time>
      </trkpt>
      <trkpt lat="47.0387" lon="-1.10945">
        <ele>107</ele>
        <time>2023-03-21T08:34:12Z</time>
      </trkpt>
      <trkpt lat="47.0408" lon="-1.11267">
        <ele>97</ele>
        <time>2023-03-21T08:40:57Z</time>
      </trkpt>
      <trkpt lat="47.03985" lon="-1.11467">
        <ele>96</ele>
        <time>2023-03-21T08:44:39Z</time>
      </trkpt>
      <trkpt lat="47.0401" lon="-1.11502">
        <ele>92</ele>
        <time>2023-03-21T08:45:25Z</time>
      </trkpt>
      <trkpt lat="47.0401" lon="-1.11521">
        <ele>90</ele>
        <time>2023-03-21T08:45:42Z</time>
      </trkpt>
      <trkpt lat="47.03992" lon="-1.11555">
        <ele>89</ele>
        <time>2023-03-21T08:46:21Z</time>
      </trkpt>
      <trkpt lat="47.03989" lon="-1.11576">
        <ele>88</ele>
        <time>2023-03-21T08:46:41Z</time>
      </trkpt>
      <trkpt lat="47.04004" lon="-1.11592">
        <ele>85</ele>
        <time>2023-03-21T08:47:05Z</time>
      </trkpt>
      <trkpt lat="47.04006" lon="-1.11607">
        <ele>85</ele>
        <time>2023-03-21T08:47:19Z</time>
      </trkpt>
      <trkpt lat="47.04069" lon="-1.11672">
        <ele>80</ele>
        <time>2023-03-21T08:49:02Z</time>
      </trkpt>
      <trkpt lat="47.04085" lon="-1.11687">
        <ele>80</ele>
        <time>2023-03-21T08:49:28Z</time>
      </trkpt>
      <trkpt lat="47.04129" lon="-1.11658">
        <ele>82</ele>
        <time>2023-03-21T08:50:32Z</time>
      </trkpt>
      <trkpt lat="47.04123" lon="-1.11615">
        <ele>83</ele>
        <time>2023-03-21T08:51:12Z</time>
      </trkpt>
      <trkpt lat="47.04124" lon="-1.11564">
        <ele>84</ele>
        <time>2023-03-21T08:51:58Z</time>
      </trkpt>
      <trkpt lat="47.04145" lon="-1.11519">
        <ele>85</ele>
        <time>2023-03-21T08:52:48Z</time>
      </trkpt>
      <trkpt lat="47.04191" lon="-1.11484">
        <ele>86</ele>
        <time>2023-03-21T08:53:57Z</time>
      </trkpt>
      <trkpt lat="47.04246" lon="-1.11287">
        <ele>89</ele>
        <time>2023-03-21T08:57:11Z</time>
      </trkpt>
      <trkpt lat="47.0428" lon="-1.11248">
        <ele>89</ele>
        <time>2023-03-21T08:58:08Z</time>
      </trkpt>
      <trkpt lat="47.04325" lon="-1.11252">
        <ele>88</ele>
        <time>2023-03-21T08:59:08Z</time>
      </trkpt>
      <trkpt lat="47.04355" lon="-1.11258">
        <ele>88</ele>
        <time>2023-03-21T08:59:49Z</time>
      </trkpt>
      <trkpt lat="47.04512" lon="-1.10991">
        <ele>89</ele>
        <time>2023-03-21T09:05:09Z</time>
      </trkpt>
      <trkpt lat="47.04686" lon="-1.1107">
        <ele>97</ele>
        <time>2023-03-21T09:09:12Z</time>
      </trkpt>
      <trkpt lat="47.04711" lon="-1.10813">
        <ele>97</ele>
        <time>2023-03-21T09:13:08Z</time>
      </trkpt>
      <trkpt lat="47.04715" lon="-1.10704">
        <ele>97</ele>
        <time>2023-03-21T09:14:48Z</time>
      </trkpt>
      <trkpt lat="47.04781" lon="-1.10448">
        <ele>97</ele>
        <time>2023-03-21T09:18:57Z</time>
      </trkpt>
      <trkpt lat="47.04865" lon="-1.10365">
        <ele>99</ele>
        <time>2023-03-21T09:21:12Z</time>
      </trkpt>
      <trkpt lat="47.05182" lon="-1.10296">
        <ele>101</ele>
        <time>2023-03-21T09:28:19Z</time>
      </trkpt>
      <trkpt lat="47.04922" lon="-1.09787">
        <ele>106</ele>
        <time>2023-03-21T09:37:58Z</time>
      </trkpt>
      <trkpt lat="47.04861" lon="-1.09866">
        <ele>104</ele>
        <time>2023-03-21T09:39:46Z</time>
      </trkpt>
      <trkpt lat="47.04805" lon="-1.0988">
        <ele>103</ele>
        <time>2023-03-21T09:41:02Z</time>
      </trkpt>
      <trkpt lat="47.04783" lon="-1.09892">
        <ele>103</ele>
        <time>2023-03-21T09:41:34Z</time>
      </trkpt>
      <trkpt lat="47.04653" lon="-1.09982">
        <ele>102</ele>
        <time>2023-03-21T09:44:45Z</time>
      </trkpt>
      <trkpt lat="47.04628" lon="-1.09984">
        <ele>103</ele>
        <time>2023-03-21T09:45:19Z</time>
      </trkpt>
      <trkpt lat="47.04673" lon="-1.09833">
        <ele>104</ele>
        <time>2023-03-21T09:47:49Z</time>
      </trkpt>
      <trkpt lat="47.04667" lon="-1.09672">
        <ele>109</ele>
        <time>2023-03-21T09:50:15Z</time>
      </trkpt>
      <trkpt lat="47.04668" lon="-1.09563">
        <ele>109</ele>
        <time>2023-03-21T09:51:54Z</time>
      </trkpt>
      <trkpt lat="47.04658" lon="-1.09424">
        <ele>112</ele>
        <time>2023-03-21T09:54:01Z</time>
      </trkpt>
      <trkpt lat="47.04648" lon="-1.09333">
        <ele>115</ele>
        <time>2023-03-21T09:55:25Z</time>
      </trkpt>
      <trkpt lat="47.04508" lon="-1.09057">
        <ele>114</ele>
        <time>2023-03-21T10:00:38Z</time>
      </trkpt>
      <trkpt lat="47.04437" lon="-1.08875">
        <ele>113</ele>
        <time>2023-03-21T10:03:49Z</time>
      </trkpt>
      <trkpt lat="47.04413" lon="-1.08841">
        <ele>113</ele>
        <time>2023-03-21T10:04:33Z</time>
      </trkpt>
      <trkpt lat="47.04212" lon="-1.08618">
        <ele>111</ele>
        <time>2023-03-21T10:10:10Z</time>
      </trkpt>
      <trkpt lat="47.03868" lon="-1.08139">
        <ele>120</ele>
        <time>2023-03-21T10:20:42Z</time>
      </trkpt>
      <trkpt lat="47.03729" lon="-1.08382">
        <ele>117</ele>
        <time>2023-03-21T10:25:31Z</time>
      </trkpt>
      <trkpt lat="47.0378" lon="-1.08435">
        <ele>118</ele>
        <time>2023-03-21T10:26:54Z</time>
      </trkpt>
      <trkpt lat="47.0375" lon="-1.0855">
        <ele>117</ele>
        <time>2023-03-21T10:28:46Z</time>
      </trkpt>
      <trkpt lat="47.03716" lon="-1.08683">
        <ele>116</ele>
        <time>2023-03-21T10:30:56Z</time>
      </trkpt>
      <trkpt lat="47.03682" lon="-1.08759">
        <ele>117</ele>
        <time>2023-03-21T10:32:18Z</time>
      </trkpt>
      <trkpt lat="47.03565" lon="-1.08935">
        <ele>116</ele>
        <time>2023-03-21T10:36:02Z</time>
      </trkpt>
      <trkpt lat="47.03307" lon="-1.0932">
        <ele>114</ele>
        <time>2023-03-21T10:44:13Z</time>
      </trkpt>
      <trkpt lat="47.03258" lon="-1.09116">
        <ele>115</ele>
        <time>2023-03-21T10:47:30Z</time>
      </trkpt>
      <trkpt lat="47.03203" lon="-1.09205">
        <ele>115</ele>
        <time>2023-03-21T10:49:19Z</time>
      </trkpt>
    </trkseg>
  </trk>
</gpx>